createdAt,value
2022-07-28T00:03:31.757Z,53.30
2022-07-28T00:08:33.450Z,53.02
2022-07-28T00:13:35.052Z,53.91
2022-07-28T00:18:36.713Z,53.93
2022-07-28T00:23:39.167Z,53.37
2022-07-28T00:28:41.503Z,55.03
2022-07-28T00:33:43.264Z,55.35
2022-07-28T00:38:45.860Z,55.99
2022-07-28T00:43:52.074Z,55.14
2022-07-28T00:48:55.178Z,54.81
2022-07-28T00:53:57.469Z,55.19
2022-07-28T00:58:59.183Z,56.37
2022-07-28T01:04:02.591Z,56.04
2022-07-28T01:09:20.052Z,55.68
2022-07-28T01:14:32.019Z,55.60
2022-07-28T01:19:36.482Z,56.53
2022-07-28T01:24:49.918Z,57.75
2022-07-28T01:30:26.216Z,57.95
2022-07-28T01:35:35.489Z,57.65
2022-07-28T01:40:40.734Z,57.81
2022-07-28T01:45:44.717Z,57.17
2022-07-28T01:50:48.758Z,58.32
2022-07-28T01:55:51.752Z,59.57
2022-07-28T02:00:54.595Z,59.21
2022-07-28T02:05:58.355Z,58.70
2022-07-28T02:11:18.654Z,59.37
2022-07-28T02:16:23.307Z,59.48
2022-07-28T02:21:26.705Z,59.38
2022-07-28T02:26:34.267Z,60.50
2022-07-28T02:32:01.995Z,60.32
2022-07-28T02:37:05.801Z,60.08
2022-07-28T02:42:18.569Z,60.84
2022-07-28T02:47:24.213Z,61.27
2022-07-28T02:52:28.140Z,61.52
2022-07-28T02:57:31.270Z,61.55
2022-07-28T03:02:36.669Z,61.77
2022-07-28T03:07:42.489Z,63.00
2022-07-28T03:12:55.203Z,63.95
2022-07-28T03:17:56.867Z,64.51
2022-07-28T03:22:59.410Z,66.28
2022-07-28T03:28:01.227Z,65.33
2022-07-28T03:33:03.586Z,64.00
2022-07-28T03:38:13.887Z,64.26
2022-07-28T03:43:21.529Z,65.56
2022-07-28T03:48:29.241Z,65.28
2022-07-28T03:53:30.879Z,65.81
2022-07-28T03:58:32.585Z,66.51
2022-07-28T04:03:42.650Z,66.15
2022-07-28T04:08:45.176Z,66.26
2022-07-28T04:13:46.825Z,66.88
2022-07-28T04:18:48.567Z,66.70
2022-07-28T04:23:50.600Z,65.73
2022-07-28T04:28:52.201Z,65.53
2022-07-28T04:33:53.844Z,64.92
2022-07-28T04:38:57.503Z,63.49
2022-07-28T04:43:59.463Z,62.94
2022-07-28T04:49:01.299Z,62.53
2022-07-28T04:54:03.206Z,63.17
2022-07-28T04:59:04.869Z,62.05
2022-07-28T05:04:07.178Z,61.08
2022-07-28T05:09:09.263Z,60.71
2022-07-28T05:14:12.651Z,60.17
2022-07-28T05:19:15.034Z,58.48
2022-07-28T05:24:17.239Z,57.21
2022-07-28T05:29:19.159Z,56.74
2022-07-28T05:34:20.807Z,56.31
2022-07-28T05:39:24.367Z,55.94
2022-07-28T05:44:26.562Z,53.69
2022-07-28T05:49:28.280Z,54.19
2022-07-28T05:54:30.007Z,52.77
2022-07-28T05:59:31.622Z,52.63
2022-07-28T06:04:33.527Z,50.58
2022-07-28T06:09:35.379Z,49.46
2022-07-28T06:14:36.982Z,48.84
2022-07-28T06:19:38.716Z,48.23
2022-07-28T06:24:40.362Z,46.03
2022-07-28T06:29:42.246Z,46.97
2022-07-28T06:34:43.916Z,47.46
2022-07-28T06:39:45.597Z,46.11
2022-07-28T06:44:58.320Z,47.58
2022-07-28T06:50:00.875Z,47.04
2022-07-28T06:55:03.234Z,46.50
2022-07-28T07:00:08.510Z,45.92
2022-07-28T07:05:12.365Z,44.40
2022-07-28T07:10:14.057Z,43.21
2022-07-28T07:15:15.776Z,43.17
2022-07-28T07:20:18.371Z,43.05
2022-07-28T07:25:20.204Z,42.52
2022-07-28T07:30:21.965Z,42.66
2022-07-28T07:35:23.805Z,42.25
2022-07-28T07:40:25.605Z,43.05
2022-07-28T07:45:27.284Z,41.01
2022-07-28T07:50:29.668Z,39.16
2022-07-28T07:55:34.513Z,39.11
2022-07-28T08:00:39.647Z,39.20
2022-07-28T08:05:41.459Z,38.62
2022-07-28T08:10:43.077Z,36.56
2022-07-28T08:15:44.964Z,37.02
2022-07-28T08:20:46.671Z,36.22
2022-07-28T08:25:48.504Z,35.82
2022-07-28T08:30:50.235Z,35.49
2022-07-28T08:35:51.929Z,35.56
2022-07-28T08:40:57.159Z,33.62
2022-07-28T08:46:06.470Z,34.10
2022-07-28T08:51:11.146Z,33.33
2022-07-28T08:56:15.548Z,32.95
2022-07-28T09:01:17.613Z,32.31
2022-07-28T09:06:22.179Z,32.33
2022-07-28T09:11:28.342Z,31.12
2022-07-28T09:16:30.431Z,32.20
2022-07-28T09:21:32.722Z,31.30
2022-07-28T09:26:34.407Z,32.21
2022-07-28T09:31:55.795Z,32.04
2022-07-28T09:36:59.387Z,30.58
2022-07-28T09:42:01.254Z,29.92
2022-07-28T09:47:21.592Z,29.86
2022-07-28T09:52:32.096Z,29.66
2022-07-28T09:57:36.260Z,27.66
2022-07-28T10:02:39.354Z,28.24
2022-07-28T10:07:50.248Z,28.81
2022-07-28T10:13:05.340Z,27.94
2022-07-28T10:18:07.073Z,27.59
2022-07-28T10:23:14.165Z,27.85
2022-07-28T10:28:19.350Z,27.15
2022-07-28T10:33:23.405Z,26.43
2022-07-28T10:38:34.874Z,26.75
2022-07-28T10:43:36.925Z,27.31
2022-07-28T10:48:44.889Z,27.24
2022-07-28T10:54:05.917Z,26.75
2022-07-28T10:59:22.558Z,25.53
2022-07-28T11:04:52.359Z,25.63
2022-07-28T11:10:14.074Z,24.49
2022-07-28T11:15:36.216Z,25.07
2022-07-28T11:20:53.119Z,25.16
2022-07-28T11:26:19.857Z,26.12
2022-07-28T11:31:43.878Z,24.55
2022-07-28T11:37:03.676Z,23.54
2022-07-28T11:42:26.162Z,24.05
2022-07-28T11:47:29.888Z,25.77
2022-07-28T11:52:31.592Z,24.82
2022-07-28T11:57:41.484Z,24.42
2022-07-28T12:02:43.224Z,25.35
2022-07-28T12:07:48.086Z,25.33
2022-07-28T12:12:54.641Z,24.96
2022-07-28T12:17:59.178Z,24.61
2022-07-28T12:23:06.281Z,23.81
2022-07-28T12:28:18.670Z,24.72
2022-07-28T12:33:29.339Z,25.36
2022-07-28T12:38:31.869Z,25.51
2022-07-28T12:43:34.286Z,25.23
2022-07-28T12:48:41.237Z,24.55
2022-07-28T12:53:52.119Z,24.71
2022-07-28T12:59:08.317Z,25.20
2022-07-28T13:04:09.931Z,25.80
2022-07-28T13:09:23.351Z,25.16
2022-07-28T13:14:43.644Z,25.33
2022-07-28T13:19:46.573Z,23.93
2022-07-28T13:24:48.157Z,24.40
2022-07-28T13:29:50.045Z,24.37
2022-07-28T13:34:51.799Z,25.63
2022-07-28T13:39:54.624Z,25.53
2022-07-28T13:44:56.548Z,25.74
2022-07-28T13:49:58.591Z,25.80
2022-07-28T13:55:00.555Z,25.89
2022-07-28T14:00:07.722Z,25.78
2022-07-28T14:05:09.827Z,25.25
2022-07-28T14:10:12.818Z,26.43
2022-07-28T14:15:15.186Z,25.68
2022-07-28T14:20:16.872Z,25.75
2022-07-28T14:25:19.754Z,25.51
2022-07-28T14:30:25.972Z,25.26
2022-07-28T14:35:27.799Z,25.15
2022-07-28T14:40:30.483Z,25.32
2022-07-28T14:45:32.916Z,25.18
2022-07-28T14:50:57.161Z,25.92
2022-07-28T14:55:58.932Z,24.99
2022-07-28T15:01:00.640Z,24.98
2022-07-28T15:06:02.370Z,25.03
2022-07-28T15:11:04.038Z,24.88
2022-07-28T15:16:06.125Z,24.77
2022-07-28T15:21:12.634Z,24.55
2022-07-28T15:26:14.360Z,25.15
2022-07-28T15:31:17.256Z,25.21
2022-07-28T15:36:24.540Z,25.56
2022-07-28T15:41:26.271Z,25.85
2022-07-28T15:46:29.118Z,25.68
2022-07-28T15:51:31.768Z,25.09
2022-07-28T15:56:36.265Z,25.02
2022-07-28T16:01:43.386Z,24.96
2022-07-28T16:07:05.726Z,24.77
2022-07-28T16:12:07.669Z,25.04
2022-07-28T16:17:15.189Z,25.00
2022-07-28T16:22:20.395Z,25.09
2022-07-28T16:27:22.023Z,25.72
2022-07-28T16:32:23.768Z,25.87
2022-07-28T16:37:25.516Z,26.15
2022-07-28T16:42:27.482Z,26.29
2022-07-28T16:47:29.189Z,26.70
2022-07-28T16:52:30.836Z,27.09
2022-07-28T16:57:32.457Z,26.92
2022-07-28T17:02:34.060Z,26.49
2022-07-28T17:07:45.303Z,26.59
2022-07-28T17:12:49.815Z,27.12
2022-07-28T17:17:52.502Z,26.44
2022-07-28T17:22:54.068Z,26.74
2022-07-28T17:27:55.924Z,27.38
2022-07-28T17:33:03.500Z,27.09
2022-07-28T17:38:09.897Z,27.06
2022-07-28T17:43:11.999Z,27.26
2022-07-28T17:48:13.986Z,27.12
2022-07-28T17:53:15.941Z,27.16
2022-07-28T17:58:27.976Z,27.33
2022-07-28T18:03:30.091Z,27.38
2022-07-28T18:08:51.815Z,27.49
2022-07-28T18:14:03.720Z,27.86
2022-07-28T18:19:06.747Z,27.49
2022-07-28T18:24:08.390Z,27.32
2022-07-28T18:29:10.018Z,27.79
2022-07-28T18:34:11.898Z,28.04
2022-07-28T18:39:25.258Z,28.39
2022-07-28T18:44:26.821Z,28.43
2022-07-28T18:49:28.506Z,28.41
2022-07-28T18:54:39.256Z,28.48
2022-07-28T18:59:45.472Z,28.69
2022-07-28T19:04:49.385Z,29.21
2022-07-28T19:09:51.136Z,29.96
2022-07-28T19:14:52.931Z,31.06
2022-07-28T19:19:59.308Z,31.92
2022-07-28T19:25:03.036Z,32.13
2022-07-28T19:30:06.262Z,32.67
2022-07-28T19:35:10.256Z,33.21
2022-07-28T19:40:12.191Z,32.81
2022-07-28T19:45:16.614Z,33.10
2022-07-28T19:50:18.390Z,33.53
2022-07-28T19:55:20.086Z,34.25
2022-07-28T20:00:21.935Z,34.12
2022-07-28T20:05:24.276Z,35.15
2022-07-28T20:10:25.925Z,36.28
2022-07-28T20:15:27.563Z,36.23
2022-07-28T20:20:29.180Z,36.07
2022-07-28T20:25:30.828Z,36.06
2022-07-28T20:30:33.706Z,36.45
2022-07-28T20:35:35.399Z,37.19
2022-07-28T20:40:37.108Z,37.68
2022-07-28T20:45:38.813Z,37.39
2022-07-28T20:50:40.382Z,37.49
2022-07-28T20:55:42.072Z,38.89
2022-07-28T21:00:43.704Z,36.87
2022-07-28T21:05:45.320Z,37.88
2022-07-28T21:10:47.756Z,38.29
2022-07-28T21:15:49.413Z,38.41
2022-07-28T21:20:51.044Z,38.38
2022-07-28T21:25:52.718Z,38.50
2022-07-28T21:30:54.335Z,39.40
2022-07-28T21:35:55.998Z,40.12
2022-07-28T21:40:57.528Z,40.55
2022-07-28T21:45:59.161Z,41.02
2022-07-28T21:51:00.836Z,41.66
2022-07-28T21:56:02.525Z,42.14
2022-07-28T22:01:04.237Z,41.47
2022-07-28T22:06:07.247Z,41.09
2022-07-28T22:11:08.874Z,41.61
2022-07-28T22:16:10.513Z,42.82
2022-07-28T22:21:12.180Z,42.20
2022-07-28T22:26:13.901Z,42.30
2022-07-28T22:31:15.712Z,42.12
2022-07-28T22:36:17.583Z,42.24
2022-07-28T22:41:19.151Z,43.41
2022-07-28T22:46:20.730Z,43.65
2022-07-28T22:51:22.391Z,44.26
2022-07-28T22:56:24.048Z,44.01
2022-07-28T23:01:25.685Z,43.99
2022-07-28T23:06:28.539Z,43.51
2022-07-28T23:11:30.094Z,44.45
2022-07-28T23:16:31.762Z,44.04
2022-07-28T23:21:37.374Z,45.30
2022-07-28T23:26:39.028Z,45.56
2022-07-28T23:31:40.704Z,45.76
2022-07-28T23:36:42.323Z,45.47
2022-07-28T23:41:44.005Z,46.08
2022-07-28T23:46:45.668Z,46.42
2022-07-28T23:51:48.863Z,47.06
2022-07-28T23:56:55.171Z,47.11
